sensor_id;sensor_type;location;lat;lon;timestamp;P1;durP1;ratioP1;P2;durP2;ratioP2
41480;SDS011;27217;51.220;5.308;2023-03-21T00:00:38;18.45;;;6.65;;
41480;SDS011;27217;51.220;5.308;2023-03-21T00:03:05;24.88;;;6.22;;
41480;SDS011;27217;51.220;5.308;2023-03-21T00:05:30;11.63;;;5.80;;
41480;SDS011;27217;51.220;5.308;2023-03-21T00:07:56;15.10;;;5.78;;
41480;SDS011;27217;51.220;5.308;2023-03-21T00:10:22;14.45;;;6.15;;
41480;SDS011;27217;51.220;5.308;2023-03-21T00:12:47;13.85;;;5.72;;
41480;SDS011;27217;51.220;5.308;2023-03-21T00:15:22;17.08;;;6.22;;
41480;SDS011;27217;51.220;5.308;2023-03-21T00:17:50;15.82;;;5.80;;
41480;SDS011;27217;51.220;5.308;2023-03-21T00:20:18;11.13;;;5.47;;
41480;SDS011;27217;51.220;5.308;2023-03-21T00:22:44;15.05;;;6.38;;
41480;SDS011;27217;51.220;5.308;2023-03-21T00:25:11;13.25;;;5.43;;
41480;SDS011;27217;51.220;5.308;2023-03-21T00:27:37;16.48;;;5.65;;
41480;SDS011;27217;51.220;5.308;2023-03-21T00:30:03;15.88;;;5.45;;
41480;SDS011;27217;51.220;5.308;2023-03-21T00:32:30;17.17;;;5.70;;
41480;SDS011;27217;51.220;5.308;2023-03-21T00:34:57;18.42;;;5.45;;
41480;SDS011;27217;51.220;5.308;2023-03-21T00:37:22;14.98;;;5.50;;
41480;SDS011;27217;51.220;5.308;2023-03-21T00:39:48;11.88;;;5.97;;
41480;SDS011;27217;51.220;5.308;2023-03-21T00:42:14;14.60;;;5.38;;
41480;SDS011;27217;51.220;5.308;2023-03-21T00:44:40;19.08;;;6.22;;
41480;SDS011;27217;51.220;5.308;2023-03-21T00:47:07;13.45;;;5.38;;
41480;SDS011;27217;51.220;5.308;2023-03-21T00:49:36;13.55;;;5.75;;
41480;SDS011;27217;51.220;5.308;2023-03-21T00:52:06;16.60;;;5.85;;
41480;SDS011;27217;51.220;5.308;2023-03-21T00:54:34;15.05;;;5.97;;
41480;SDS011;27217;51.220;5.308;2023-03-21T00:57:02;19.92;;;6.00;;
41480;SDS011;27217;51.220;5.308;2023-03-21T00:59:29;19.10;;;5.90;;
41480;SDS011;27217;51.220;5.308;2023-03-21T01:01:55;18.63;;;7.00;;
41480;SDS011;27217;51.220;5.308;2023-03-21T01:04:24;10.43;;;5.45;;
41480;SDS011;27217;51.220;5.308;2023-03-21T01:06:51;13.23;;;5.70;;
41480;SDS011;27217;51.220;5.308;2023-03-21T01:09:20;18.55;;;5.60;;
41480;SDS011;27217;51.220;5.308;2023-03-21T01:11:47;15.20;;;5.85;;
41480;SDS011;27217;51.220;5.308;2023-03-21T01:14:15;16.77;;;6.05;;
41480;SDS011;27217;51.220;5.308;2023-03-21T01:16:42;14.68;;;6.50;;
41480;SDS011;27217;51.220;5.308;2023-03-21T01:19:10;19.38;;;6.47;;
41480;SDS011;27217;51.220;5.308;2023-03-21T01:21:39;16.77;;;6.22;;
41480;SDS011;27217;51.220;5.308;2023-03-21T01:24:05;14.45;;;5.65;;
41480;SDS011;27217;51.220;5.308;2023-03-21T01:26:31;20.10;;;6.78;;
41480;SDS011;27217;51.220;5.308;2023-03-21T01:28:57;17.55;;;6.35;;
41480;SDS011;27217;51.220;5.308;2023-03-21T01:31:23;17.80;;;5.78;;
41480;SDS011;27217;51.220;5.308;2023-03-21T01:33:49;17.55;;;6.40;;
41480;SDS011;27217;51.220;5.308;2023-03-21T01:36:17;20.88;;;5.78;;
41480;SDS011;27217;51.220;5.308;2023-03-21T01:38:48;14.52;;;5.63;;
41480;SDS011;27217;51.220;5.308;2023-03-21T01:41:24;16.52;;;5.60;;
41480;SDS011;27217;51.220;5.308;2023-03-21T01:43:52;19.13;;;6.43;;
41480;SDS011;27217;51.220;5.308;2023-03-21T01:51:59;14.57;;;6.38;;
41480;SDS011;27217;51.220;5.308;2023-03-21T01:54:34;20.00;;;6.18;;
41480;SDS011;27217;51.220;5.308;2023-03-21T01:57:06;15.82;;;5.78;;
41480;SDS011;27217;51.220;5.308;2023-03-21T01:59:37;12.35;;;6.40;;
41480;SDS011;27217;51.220;5.308;2023-03-21T02:02:10;21.30;;;7.25;;
41480;SDS011;27217;51.220;5.308;2023-03-21T02:04:41;16.85;;;6.97;;
41480;SDS011;27217;51.220;5.308;2023-03-21T02:07:29;21.00;;;6.72;;
41480;SDS011;27217;51.220;5.308;2023-03-21T02:10:00;14.00;;;6.90;;
41480;SDS011;27217;51.220;5.308;2023-03-21T02:12:29;13.93;;;6.70;;
41480;SDS011;27217;51.220;5.308;2023-03-21T02:14:56;18.00;;;7.35;;
41480;SDS011;27217;51.220;5.308;2023-03-21T02:25:57;16.58;;;7.10;;
41480;SDS011;27217;51.220;5.308;2023-03-21T02:29:01;17.77;;;7.53;;
41480;SDS011;27217;51.220;5.308;2023-03-21T02:37:21;16.45;;;6.57;;
41480;SDS011;27217;51.220;5.308;2023-03-21T02:42:39;21.92;;;7.72;;
41480;SDS011;27217;51.220;5.308;2023-03-21T02:45:12;26.08;;;7.82;;
41480;SDS011;27217;51.220;5.308;2023-03-21T02:53:06;24.90;;;7.32;;
41480;SDS011;27217;51.220;5.308;2023-03-21T02:55:34;19.15;;;7.22;;
41480;SDS011;27217;51.220;5.308;2023-03-21T02:58:03;23.67;;;8.10;;
41480;SDS011;27217;51.220;5.308;2023-03-21T03:00:31;28.58;;;8.15;;
41480;SDS011;27217;51.220;5.308;2023-03-21T03:02:58;23.55;;;7.72;;
41480;SDS011;27217;51.220;5.308;2023-03-21T03:05:28;18.20;;;7.13;;
41480;SDS011;27217;51.220;5.308;2023-03-21T03:18:57;35.35;;;7.25;;
41480;SDS011;27217;51.220;5.308;2023-03-21T03:23:52;17.27;;;6.15;;
41480;SDS011;27217;51.220;5.308;2023-03-21T03:26:28;16.10;;;4.70;;
41480;SDS011;27217;51.220;5.308;2023-03-21T03:29:00;17.70;;;7.40;;
41480;SDS011;27217;51.220;5.308;2023-03-21T03:31:35;23.45;;;6.90;;
41480;SDS011;27217;51.220;5.308;2023-03-21T03:34:08;28.83;;;7.00;;
41480;SDS011;27217;51.220;5.308;2023-03-21T03:36:41;18.40;;;6.35;;
41480;SDS011;27217;51.220;5.308;2023-03-21T03:39:12;20.98;;;6.80;;
41480;SDS011;27217;51.220;5.308;2023-03-21T03:41:46;15.95;;;6.03;;
41480;SDS011;27217;51.220;5.308;2023-03-21T03:44:18;17.42;;;6.32;;
41480;SDS011;27217;51.220;5.308;2023-03-21T03:46:50;24.60;;;6.75;;
41480;SDS011;27217;51.220;5.308;2023-03-21T03:49:23;19.52;;;5.70;;
41480;SDS011;27217;51.220;5.308;2023-03-21T03:54:25;24.70;;;6.25;;
41480;SDS011;27217;51.220;5.308;2023-03-21T03:57:03;23.42;;;6.00;;
41480;SDS011;27217;51.220;5.308;2023-03-21T03:59:40;17.70;;;7.18;;
41480;SDS011;27217;51.220;5.308;2023-03-21T04:02:08;16.98;;;5.75;;
41480;SDS011;27217;51.220;5.308;2023-03-21T04:04:35;20.67;;;6.28;;
41480;SDS011;27217;51.220;5.308;2023-03-21T04:07:01;19.58;;;5.88;;
41480;SDS011;27217;51.220;5.308;2023-03-21T04:09:28;19.17;;;6.00;;
41480;SDS011;27217;51.220;5.308;2023-03-21T04:11:54;19.80;;;6.55;;
41480;SDS011;27217;51.220;5.308;2023-03-21T04:14:21;19.90;;;6.28;;
41480;SDS011;27217;51.220;5.308;2023-03-21T04:16:48;16.55;;;5.75;;
41480;SDS011;27217;51.220;5.308;2023-03-21T04:19:14;16.55;;;6.13;;
41480;SDS011;27217;51.220;5.308;2023-03-21T04:21:40;18.30;;;6.38;;
41480;SDS011;27217;51.220;5.308;2023-03-21T04:24:06;16.42;;;5.75;;
41480;SDS011;27217;51.220;5.308;2023-03-21T04:26:33;24.13;;;6.20;;
41480;SDS011;27217;51.220;5.308;2023-03-21T04:29:00;22.45;;;6.32;;
41480;SDS011;27217;51.220;5.308;2023-03-21T04:31:29;24.52;;;7.38;;
41480;SDS011;27217;51.220;5.308;2023-03-21T04:33:58;14.85;;;5.55;;
41480;SDS011;27217;51.220;5.308;2023-03-21T04:36:26;26.70;;;6.57;;
41480;SDS011;27217;51.220;5.308;2023-03-21T04:38:54;26.10;;;6.30;;
41480;SDS011;27217;51.220;5.308;2023-03-21T04:41:25;19.05;;;5.35;;
41480;SDS011;27217;51.220;5.308;2023-03-21T04:43:52;15.68;;;5.28;;
41480;SDS011;27217;51.220;5.308;2023-03-21T04:46:18;16.08;;;5.28;;
41480;SDS011;27217;51.220;5.308;2023-03-21T04:48:44;20.17;;;5.63;;
41480;SDS011;27217;51.220;5.308;2023-03-21T04:51:11;15.02;;;4.82;;
41480;SDS011;27217;51.220;5.308;2023-03-21T04:53:37;17.63;;;4.88;;
41480;SDS011;27217;51.220;5.308;2023-03-21T04:56:06;21.67;;;5.15;;
41480;SDS011;27217;51.220;5.308;2023-03-21T04:58:32;17.55;;;4.45;;
41480;SDS011;27217;51.220;5.308;2023-03-21T05:00:58;14.13;;;4.05;;
41480;SDS011;27217;51.220;5.308;2023-03-21T05:03:26;16.52;;;4.32;;
41480;SDS011;27217;51.220;5.308;2023-03-21T05:05:58;9.77;;;4.90;;
41480;SDS011;27217;51.220;5.308;2023-03-21T05:08:27;12.90;;;4.18;;
41480;SDS011;27217;51.220;5.308;2023-03-21T05:10:53;11.23;;;4.30;;
41480;SDS011;27217;51.220;5.308;2023-03-21T05:13:20;16.25;;;4.95;;
41480;SDS011;27217;51.220;5.308;2023-03-21T05:15:46;12.38;;;3.85;;
41480;SDS011;27217;51.220;5.308;2023-03-21T05:18:12;13.25;;;4.22;;
41480;SDS011;27217;51.220;5.308;2023-03-21T05:20:39;14.80;;;3.97;;
41480;SDS011;27217;51.220;5.308;2023-03-21T05:23:25;12.00;;;4.35;;
41480;SDS011;27217;51.220;5.308;2023-03-21T05:25:55;18.38;;;3.42;;
41480;SDS011;27217;51.220;5.308;2023-03-21T05:28:21;14.85;;;3.40;;
41480;SDS011;27217;51.220;5.308;2023-03-21T05:30:47;14.43;;;3.45;;
41480;SDS011;27217;51.220;5.308;2023-03-21T05:33:12;11.52;;;3.88;;
41480;SDS011;27217;51.220;5.308;2023-03-21T05:35:38;11.55;;;3.60;;
41480;SDS011;27217;51.220;5.308;2023-03-21T05:38:04;11.75;;;3.40;;
41480;SDS011;27217;51.220;5.308;2023-03-21T05:40:30;14.70;;;3.55;;
41480;SDS011;27217;51.220;5.308;2023-03-21T05:42:56;11.70;;;3.03;;
41480;SDS011;27217;51.220;5.308;2023-03-21T05:45:22;11.85;;;3.88;;
41480;SDS011;27217;51.220;5.308;2023-03-21T05:47:48;13.05;;;3.85;;
41480;SDS011;27217;51.220;5.308;2023-03-21T05:50:14;20.77;;;4.07;;
41480;SDS011;27217;51.220;5.308;2023-03-21T05:52:40;8.43;;;4.03;;
41480;SDS011;27217;51.220;5.308;2023-03-21T05:55:07;14.57;;;4.32;;
41480;SDS011;27217;51.220;5.308;2023-03-21T05:57:34;13.23;;;4.35;;
41480;SDS011;27217;51.220;5.308;2023-03-21T06:00:03;11.93;;;4.40;;
41480;SDS011;27217;51.220;5.308;2023-03-21T06:02:31;14.45;;;4.68;;
41480;SDS011;27217;51.220;5.308;2023-03-21T06:04:56;16.30;;;4.75;;
41480;SDS011;27217;51.220;5.308;2023-03-21T06:07:22;13.30;;;4.38;;
41480;SDS011;27217;51.220;5.308;2023-03-21T06:09:48;13.23;;;4.18;;
41480;SDS011;27217;51.220;5.308;2023-03-21T06:12:14;18.85;;;4.38;;
41480;SDS011;27217;51.220;5.308;2023-03-21T06:14:40;14.93;;;4.57;;
41480;SDS011;27217;51.220;5.308;2023-03-21T06:17:06;20.90;;;4.80;;
41480;SDS011;27217;51.220;5.308;2023-03-21T06:19:32;17.73;;;4.80;;
41480;SDS011;27217;51.220;5.308;2023-03-21T06:21:58;15.07;;;4.40;;
41480;SDS011;27217;51.220;5.308;2023-03-21T06:24:23;20.15;;;5.03;;
41480;SDS011;27217;51.220;5.308;2023-03-21T06:26:50;13.82;;;5.35;;
41480;SDS011;27217;51.220;5.308;2023-03-21T06:29:16;17.73;;;5.03;;
41480;SDS011;27217;51.220;5.308;2023-03-21T06:31:41;14.45;;;4.97;;
41480;SDS011;27217;51.220;5.308;2023-03-21T06:34:07;16.90;;;5.53;;
41480;SDS011;27217;51.220;5.308;2023-03-21T06:36:35;21.50;;;5.55;;
41480;SDS011;27217;51.220;5.308;2023-03-21T06:39:01;16.15;;;5.55;;
41480;SDS011;27217;51.220;5.308;2023-03-21T06:41:28;24.70;;;6.38;;
41480;SDS011;27217;51.220;5.308;2023-03-21T06:43:54;16.52;;;5.68;;
41480;SDS011;27217;51.220;5.308;2023-03-21T06:46:20;19.20;;;5.70;;
41480;SDS011;27217;51.220;5.308;2023-03-21T06:48:45;18.70;;;4.95;;
41480;SDS011;27217;51.220;5.308;2023-03-21T06:51:12;18.88;;;5.43;;
41480;SDS011;27217;51.220;5.308;2023-03-21T06:53:40;19.40;;;5.53;;
41480;SDS011;27217;51.220;5.308;2023-03-21T06:56:09;11.65;;;5.07;;
41480;SDS011;27217;51.220;5.308;2023-03-21T06:58:37;19.92;;;6.40;;
41480;SDS011;27217;51.220;5.308;2023-03-21T07:01:03;16.70;;;5.47;;
41480;SDS011;27217;51.220;5.308;2023-03-21T07:03:30;18.05;;;5.03;;
41480;SDS011;27217;51.220;5.308;2023-03-21T07:05:57;17.05;;;5.68;;
41480;SDS011;27217;51.220;5.308;2023-03-21T07:08:23;15.02;;;6.05;;
41480;SDS011;27217;51.220;5.308;2023-03-21T07:10:54;15.07;;;5.38;;
41480;SDS011;27217;51.220;5.308;2023-03-21T07:13:21;15.55;;;5.03;;
41480;SDS011;27217;51.220;5.308;2023-03-21T07:15:47;17.58;;;5.22;;
41480;SDS011;27217;51.220;5.308;2023-03-21T07:18:12;15.02;;;4.80;;
41480;SDS011;27217;51.220;5.308;2023-03-21T07:20:38;13.23;;;4.93;;
41480;SDS011;27217;51.220;5.308;2023-03-21T07:23:04;24.83;;;5.72;;
41480;SDS011;27217;51.220;5.308;2023-03-21T07:25:31;14.18;;;4.80;;
41480;SDS011;27217;51.220;5.308;2023-03-21T07:27:57;10.82;;;4.40;;
41480;SDS011;27217;51.220;5.308;2023-03-21T07:30:23;9.30;;;4.05;;
41480;SDS011;27217;51.220;5.308;2023-03-21T07:32:49;16.73;;;5.22;;
41480;SDS011;27217;51.220;5.308;2023-03-21T07:35:15;19.45;;;5.28;;
41480;SDS011;27217;51.220;5.308;2023-03-21T07:37:42;12.35;;;5.03;;
41480;SDS011;27217;51.220;5.308;2023-03-21T07:40:08;16.20;;;5.90;;
41480;SDS011;27217;51.220;5.308;2023-03-21T07:42:37;11.40;;;5.72;;
41480;SDS011;27217;51.220;5.308;2023-03-21T07:45:04;17.88;;;6.32;;
41480;SDS011;27217;51.220;5.308;2023-03-21T07:47:33;19.42;;;6.00;;
41480;SDS011;27217;51.220;5.308;2023-03-21T07:49:59;19.98;;;6.75;;
41480;SDS011;27217;51.220;5.308;2023-03-21T07:52:25;15.55;;;7.20;;
41480;SDS011;27217;51.220;5.308;2023-03-21T07:54:51;24.63;;;8.15;;
41480;SDS011;27217;51.220;5.308;2023-03-21T07:57:17;29.17;;;7.20;;
41480;SDS011;27217;51.220;5.308;2023-03-21T07:59:43;19.10;;;7.25;;
41480;SDS011;27217;51.220;5.308;2023-03-21T08:02:12;16.70;;;7.38;;
41480;SDS011;27217;51.220;5.308;2023-03-21T08:04:39;22.25;;;8.32;;
41480;SDS011;27217;51.220;5.308;2023-03-21T08:07:04;20.60;;;7.60;;
41480;SDS011;27217;51.220;5.308;2023-03-21T08:09:30;21.00;;;7.30;;
41480;SDS011;27217;51.220;5.308;2023-03-21T08:11:56;24.13;;;6.93;;
41480;SDS011;27217;51.220;5.308;2023-03-21T08:14:22;20.60;;;7.25;;
41480;SDS011;27217;51.220;5.308;2023-03-21T08:16:48;26.08;;;6.90;;
41480;SDS011;27217;51.220;5.308;2023-03-21T08:19:14;24.48;;;7.72;;
41480;SDS011;27217;51.220;5.308;2023-03-21T08:21:42;26.05;;;7.43;;
41480;SDS011;27217;51.220;5.308;2023-03-21T08:24:08;19.55;;;7.63;;
41480;SDS011;27217;51.220;5.308;2023-03-21T08:26:35;19.45;;;6.22;;
41480;SDS011;27217;51.220;5.308;2023-03-21T08:29:00;17.42;;;6.60;;
41480;SDS011;27217;51.220;5.308;2023-03-21T08:31:26;20.25;;;7.25;;
41480;SDS011;27217;51.220;5.308;2023-03-21T08:33:53;24.08;;;7.22;;
41480;SDS011;27217;51.220;5.308;2023-03-21T08:36:20;15.73;;;5.20;;
41480;SDS011;27217;51.220;5.308;2023-03-21T08:38:48;15.05;;;6.30;;
41480;SDS011;27217;51.220;5.308;2023-03-21T08:41:18;17.80;;;6.28;;
41480;SDS011;27217;51.220;5.308;2023-03-21T08:43:46;14.05;;;5.70;;
41480;SDS011;27217;51.220;5.308;2023-03-21T08:46:15;18.08;;;5.75;;
41480;SDS011;27217;51.220;5.308;2023-03-21T08:48:41;17.52;;;6.57;;
41480;SDS011;27217;51.220;5.308;2023-03-21T08:51:09;20.52;;;6.57;;
41480;SDS011;27217;51.220;5.308;2023-03-21T08:53:35;19.10;;;5.68;;
41480;SDS011;27217;51.220;5.308;2023-03-21T08:56:02;14.45;;;6.22;;
41480;SDS011;27217;51.220;5.308;2023-03-21T08:58:27;11.30;;;5.57;;
41480;SDS011;27217;51.220;5.308;2023-03-21T09:00:53;19.10;;;6.50;;
41480;SDS011;27217;51.220;5.308;2023-03-21T09:03:19;18.58;;;4.80;;
41480;SDS011;27217;51.220;5.308;2023-03-21T09:05:45;12.18;;;4.75;;
41480;SDS011;27217;51.220;5.308;2023-03-21T09:08:11;16.08;;;5.35;;
41480;SDS011;27217;51.220;5.308;2023-03-21T09:10:37;15.35;;;4.70;;
41480;SDS011;27217;51.220;5.308;2023-03-21T09:13:03;11.30;;;5.10;;
41480;SDS011;27217;51.220;5.308;2023-03-21T09:15:29;10.82;;;4.45;;
41480;SDS011;27217;51.220;5.308;2023-03-21T09:17:56;8.55;;;4.57;;
41480;SDS011;27217;51.220;5.308;2023-03-21T09:20:38;16.23;;;5.72;;
41480;SDS011;27217;51.220;5.308;2023-03-21T09:23:07;15.07;;;4.65;;
41480;SDS011;27217;51.220;5.308;2023-03-21T09:25:35;14.73;;;4.50;;
41480;SDS011;27217;51.220;5.308;2023-03-21T09:28:01;16.85;;;4.75;;
41480;SDS011;27217;51.220;5.308;2023-03-21T09:30:47;13.93;;;4.05;;
41480;SDS011;27217;51.220;5.308;2023-03-21T09:33:13;14.80;;;4.32;;
41480;SDS011;27217;51.220;5.308;2023-03-21T09:35:43;15.68;;;3.70;;
41480;SDS011;27217;51.220;5.308;2023-03-21T09:38:08;14.45;;;3.78;;
41480;SDS011;27217;51.220;5.308;2023-03-21T09:51:13;10.65;;;3.53;;
41480;SDS011;27217;51.220;5.308;2023-03-21T09:53:41;6.28;;;3.05;;
41480;SDS011;27217;51.220;5.308;2023-03-21T09:56:14;9.95;;;3.25;;
41480;SDS011;27217;51.220;5.308;2023-03-21T09:58:48;8.90;;;3.42;;
41480;SDS011;27217;51.220;5.308;2023-03-21T10:01:19;9.10;;;3.55;;
41480;SDS011;27217;51.220;5.308;2023-03-21T10:03:52;15.90;;;3.75;;
41480;SDS011;27217;51.220;5.308;2023-03-21T10:06:20;12.55;;;4.53;;
41480;SDS011;27217;51.220;5.308;2023-03-21T10:09:04;15.00;;;4.32;;
41480;SDS011;27217;51.220;5.308;2023-03-21T10:12:01;12.32;;;4.07;;
41480;SDS011;27217;51.220;5.308;2023-03-21T10:14:38;9.25;;;3.22;;
41480;SDS011;27217;51.220;5.308;2023-03-21T10:22:57;14.05;;;3.35;;
41480;SDS011;27217;51.220;5.308;2023-03-21T10:25:58;8.45;;;3.22;;
41480;SDS011;27217;51.220;5.308;2023-03-21T10:28:24;8.63;;;2.83;;
41480;SDS011;27217;51.220;5.308;2023-03-21T10:30:56;8.25;;;2.85;;
41480;SDS011;27217;51.220;5.308;2023-03-21T10:33:25;11.10;;;3.67;;
41480;SDS011;27217;51.220;5.308;2023-03-21T10:38:38;12.48;;;3.72;;
41480;SDS011;27217;51.220;5.308;2023-03-21T10:41:09;8.68;;;2.97;;
41480;SDS011;27217;51.220;5.308;2023-03-21T10:43:37;12.77;;;4.07;;
41480;SDS011;27217;51.220;5.308;2023-03-21T10:46:23;10.43;;;3.67;;
41480;SDS011;27217;51.220;5.308;2023-03-21T10:48:53;15.82;;;2.78;;
41480;SDS011;27217;51.220;5.308;2023-03-21T10:51:21;9.77;;;3.38;;
41480;SDS011;27217;51.220;5.308;2023-03-21T10:53:59;10.68;;;3.10;;
41480;SDS011;27217;51.220;5.308;2023-03-21T10:56:35;8.35;;;4.15;;
41480;SDS011;27217;51.220;5.308;2023-03-21T10:59:04;14.60;;;3.58;;
41480;SDS011;27217;51.220;5.308;2023-03-21T11:01:37;8.95;;;3.42;;
41480;SDS011;27217;51.220;5.308;2023-03-21T11:04:23;12.98;;;3.58;;
41480;SDS011;27217;51.220;5.308;2023-03-21T11:06:55;10.02;;;3.45;;
41480;SDS011;27217;51.220;5.308;2023-03-21T11:09:24;5.93;;;2.95;;
41480;SDS011;27217;51.220;5.308;2023-03-21T11:12:10;6.93;;;2.97;;
41480;SDS011;27217;51.220;5.308;2023-03-21T11:14:39;7.03;;;2.97;;
41480;SDS011;27217;51.220;5.308;2023-03-21T11:19:58;8.10;;;2.42;;
41480;SDS011;27217;51.220;5.308;2023-03-21T11:22:27;11.68;;;3.03;;
41480;SDS011;27217;51.220;5.308;2023-03-21T11:25:04;6.82;;;3.08;;
41480;SDS011;27217;51.220;5.308;2023-03-21T11:27:36;5.88;;;2.80;;
41480;SDS011;27217;51.220;5.308;2023-03-21T11:30:19;7.32;;;2.75;;
41480;SDS011;27217;51.220;5.308;2023-03-21T11:32:49;7.78;;;2.88;;
41480;SDS011;27217;51.220;5.308;2023-03-21T11:35:35;8.98;;;3.42;;
41480;SDS011;27217;51.220;5.308;2023-03-21T11:38:04;8.23;;;3.38;;
41480;SDS011;27217;51.220;5.308;2023-03-21T11:40:32;5.38;;;2.47;;
41480;SDS011;27217;51.220;5.308;2023-03-21T11:43:00;11.10;;;3.30;;
41480;SDS011;27217;51.220;5.308;2023-03-21T11:48:43;10.75;;;3.38;;
41480;SDS011;27217;51.220;5.308;2023-03-21T11:51:33;11.95;;;3.03;;
41480;SDS011;27217;51.220;5.308;2023-03-21T12:00:10;9.27;;;2.60;;
41480;SDS011;27217;51.220;5.308;2023-03-21T12:05:54;8.85;;;2.78;;
41480;SDS011;27217;51.220;5.308;2023-03-21T12:11:07;11.23;;;3.70;;
41480;SDS011;27217;51.220;5.308;2023-03-21T12:22:11;5.10;;;2.60;;
41480;SDS011;27217;51.220;5.308;2023-03-21T12:37:56;5.10;;;3.03;;
41480;SDS011;27217;51.220;5.308;2023-03-21T12:46:08;14.98;;;3.70;;
41480;SDS011;27217;51.220;5.308;2023-03-21T12:48:45;7.47;;;3.53;;
41480;SDS011;27217;51.220;5.308;2023-03-21T12:51:20;10.07;;;3.00;;
41480;SDS011;27217;51.220;5.308;2023-03-21T12:57:08;10.27;;;3.63;;
41480;SDS011;27217;51.220;5.308;2023-03-21T13:07:17;8.45;;;3.50;;
41480;SDS011;27217;51.220;5.308;2023-03-21T13:09:45;12.30;;;3.53;;
41480;SDS011;27217;51.220;5.308;2023-03-21T13:12:15;6.05;;;2.30;;
41480;SDS011;27217;51.220;5.308;2023-03-21T13:14:57;6.32;;;2.72;;
41480;SDS011;27217;51.220;5.308;2023-03-21T13:17:41;8.70;;;2.80;;
41480;SDS011;27217;51.220;5.308;2023-03-21T13:20:21;7.88;;;2.20;;
41480;SDS011;27217;51.220;5.308;2023-03-21T13:22:53;8.38;;;2.90;;
41480;SDS011;27217;51.220;5.308;2023-03-21T13:25:20;6.70;;;2.47;;
41480;SDS011;27217;51.220;5.308;2023-03-21T13:27:51;13.55;;;2.78;;
41480;SDS011;27217;51.220;5.308;2023-03-21T13:30:23;9.40;;;2.95;;
41480;SDS011;27217;51.220;5.308;2023-03-21T13:35:25;11.43;;;3.20;;
41480;SDS011;27217;51.220;5.308;2023-03-21T13:40:40;6.72;;;2.50;;
41480;SDS011;27217;51.220;5.308;2023-03-21T13:43:39;12.25;;;3.30;;
41480;SDS011;27217;51.220;5.308;2023-03-21T13:49:14;6.38;;;2.30;;
41480;SDS011;27217;51.220;5.308;2023-03-21T13:55:43;6.70;;;2.42;;
41480;SDS011;27217;51.220;5.308;2023-03-21T14:05:04;8.18;;;2.80;;
41480;SDS011;27217;51.220;5.308;2023-03-21T14:13:42;5.88;;;3.10;;
41480;SDS011;27217;51.220;5.308;2023-03-21T14:26:13;8.48;;;2.90;;
41480;SDS011;27217;51.220;5.308;2023-03-21T14:41:23;6.85;;;1.90;;
41480;SDS011;27217;51.220;5.308;2023-03-21T14:44:03;7.25;;;1.92;;
41480;SDS011;27217;51.220;5.308;2023-03-21T14:46:38;5.15;;;1.92;;
41480;SDS011;27217;51.220;5.308;2023-03-21T14:49:17;4.03;;;1.75;;
41480;SDS011;27217;51.220;5.308;2023-03-21T14:51:46;2.35;;;2.00;;
41480;SDS011;27217;51.220;5.308;2023-03-21T14:54:15;3.83;;;2.35;;
41480;SDS011;27217;51.220;5.308;2023-03-21T14:56:43;4.30;;;2.30;;
41480;SDS011;27217;51.220;5.308;2023-03-21T14:59:12;7.90;;;2.47;;
41480;SDS011;27217;51.220;5.308;2023-03-21T15:01:42;7.50;;;2.40;;
41480;SDS011;27217;51.220;5.308;2023-03-21T15:04:10;8.68;;;2.67;;
41480;SDS011;27217;51.220;5.308;2023-03-21T15:06:48;4.43;;;2.00;;
41480;SDS011;27217;51.220;5.308;2023-03-21T15:09:26;11.90;;;2.60;;
41480;SDS011;27217;51.220;5.308;2023-03-21T15:11:54;5.85;;;2.53;;
41480;SDS011;27217;51.220;5.308;2023-03-21T15:14:26;9.52;;;2.58;;
41480;SDS011;27217;51.220;5.308;2023-03-21T15:16:59;5.53;;;2.65;;
41480;SDS011;27217;51.220;5.308;2023-03-21T15:19:32;4.78;;;2.53;;
41480;SDS011;27217;51.220;5.308;2023-03-21T15:24:31;7.82;;;2.90;;
41480;SDS011;27217;51.220;5.308;2023-03-21T15:27:05;7.38;;;3.28;;
41480;SDS011;27217;51.220;5.308;2023-03-21T15:29:36;7.05;;;3.08;;
41480;SDS011;27217;51.220;5.308;2023-03-21T15:32:03;8.95;;;3.90;;
41480;SDS011;27217;51.220;5.308;2023-03-21T15:34:31;9.82;;;3.20;;
41480;SDS011;27217;51.220;5.308;2023-03-21T15:36:59;6.22;;;2.67;;
41480;SDS011;27217;51.220;5.308;2023-03-21T15:39:29;8.35;;;2.60;;
41480;SDS011;27217;51.220;5.308;2023-03-21T15:42:05;4.88;;;2.72;;
41480;SDS011;27217;51.220;5.308;2023-03-21T15:44:51;6.72;;;2.88;;
41480;SDS011;27217;51.220;5.308;2023-03-21T15:47:37;8.15;;;2.75;;
41480;SDS011;27217;51.220;5.308;2023-03-21T15:50:24;10.52;;;3.05;;
41480;SDS011;27217;51.220;5.308;2023-03-21T15:52:58;4.93;;;2.70;;
41480;SDS011;27217;51.220;5.308;2023-03-21T15:55:31;5.03;;;2.60;;
41480;SDS011;27217;51.220;5.308;2023-03-21T15:58:02;7.45;;;2.47;;
41480;SDS011;27217;51.220;5.308;2023-03-21T16:03:09;5.28;;;2.35;;
41480;SDS011;27217;51.220;5.308;2023-03-21T16:05:59;9.35;;;3.35;;
41480;SDS011;27217;51.220;5.308;2023-03-21T16:08:43;8.68;;;3.80;;
41480;SDS011;27217;51.220;5.308;2023-03-21T16:11:13;10.68;;;3.58;;
41480;SDS011;27217;51.220;5.308;2023-03-21T16:13:40;6.45;;;2.88;;
41480;SDS011;27217;51.220;5.308;2023-03-21T16:16:06;7.32;;;3.33;;
41480;SDS011;27217;51.220;5.308;2023-03-21T16:18:49;5.90;;;2.70;;
41480;SDS011;27217;51.220;5.308;2023-03-21T16:21:17;16.55;;;5.60;;
41480;SDS011;27217;51.220;5.308;2023-03-21T16:23:44;8.52;;;3.55;;
41480;SDS011;27217;51.220;5.308;2023-03-21T16:26:16;6.10;;;3.17;;
41480;SDS011;27217;51.220;5.308;2023-03-21T16:28:47;6.20;;;3.35;;
41480;SDS011;27217;51.220;5.308;2023-03-21T16:31:18;9.45;;;3.30;;
41480;SDS011;27217;51.220;5.308;2023-03-21T16:33:49;9.20;;;4.03;;
41480;SDS011;27217;51.220;5.308;2023-03-21T16:36:16;6.80;;;3.17;;
41480;SDS011;27217;51.220;5.308;2023-03-21T16:38:47;6.82;;;3.80;;
41480;SDS011;27217;51.220;5.308;2023-03-21T16:41:16;6.45;;;3.75;;
41480;SDS011;27217;51.220;5.308;2023-03-21T16:43:43;9.40;;;3.90;;
41480;SDS011;27217;51.220;5.308;2023-03-21T16:46:20;11.13;;;4.35;;
41480;SDS011;27217;51.220;5.308;2023-03-21T16:48:49;7.78;;;4.10;;
41480;SDS011;27217;51.220;5.308;2023-03-21T16:51:29;9.60;;;3.55;;
41480;SDS011;27217;51.220;5.308;2023-03-21T16:53:57;5.00;;;3.28;;
41480;SDS011;27217;51.220;5.308;2023-03-21T16:56:24;7.55;;;3.60;;
41480;SDS011;27217;51.220;5.308;2023-03-21T16:59:01;7.95;;;3.92;;
41480;SDS011;27217;51.220;5.308;2023-03-21T17:01:28;8.85;;;4.43;;
41480;SDS011;27217;51.220;5.308;2023-03-21T17:03:55;6.35;;;3.60;;
41480;SDS011;27217;51.220;5.308;2023-03-21T17:06:25;6.10;;;3.38;;
41480;SDS011;27217;51.220;5.308;2023-03-21T17:08:53;7.35;;;4.00;;
41480;SDS011;27217;51.220;5.308;2023-03-21T17:11:21;7.63;;;4.05;;
41480;SDS011;27217;51.220;5.308;2023-03-21T17:13:49;8.10;;;4.15;;
41480;SDS011;27217;51.220;5.308;2023-03-21T17:16:20;9.57;;;4.05;;
41480;SDS011;27217;51.220;5.308;2023-03-21T17:18:49;6.45;;;4.22;;
41480;SDS011;27217;51.220;5.308;2023-03-21T17:21:17;8.05;;;3.60;;
41480;SDS011;27217;51.220;5.308;2023-03-21T17:23:44;9.82;;;4.20;;
41480;SDS011;27217;51.220;5.308;2023-03-21T17:26:11;13.23;;;4.97;;
41480;SDS011;27217;51.220;5.308;2023-03-21T17:28:39;12.20;;;5.15;;
41480;SDS011;27217;51.220;5.308;2023-03-21T17:31:13;13.00;;;5.07;;
41480;SDS011;27217;51.220;5.308;2023-03-21T17:33:42;13.88;;;5.38;;
41480;SDS011;27217;51.220;5.308;2023-03-21T17:36:30;9.25;;;4.82;;
41480;SDS011;27217;51.220;5.308;2023-03-21T17:41:27;10.93;;;5.97;;
41480;SDS011;27217;51.220;5.308;2023-03-21T17:43:53;10.45;;;5.80;;
41480;SDS011;27217;51.220;5.308;2023-03-21T17:46:20;10.93;;;6.47;;
41480;SDS011;27217;51.220;5.308;2023-03-21T17:48:47;10.55;;;5.32;;